Time;durP1;ratioP1;P1;durP2;ratioP2;P2;SDS_P1;SDS_P2;PMS_P1;PMS_P2;Temp;Humidity;BMP_temperature;BMP_pressure;BME280_temperature;BME280_humidity;BME280_pressure;Samples;Min_cycle;Max_cycle;Signal;HPM_P1;HPM_P2
2022/10/14 00:00:32;;;;;;;6.85;2.35;;;;;;;;;;3384227;42;20168;-59
2022/10/14 00:03:03;;;;;;;8.27;2.50;;;;;;;;;;3384414;42;20090;-60
2022/10/14 00:05:39;;;;;;;6.38;2.40;;;;;;;;;;3384301;42;20086;-64
2022/10/14 00:08:10;;;;;;;6.97;2.60;;;;;;;;;;3384396;42;20106;-63
2022/10/14 00:10:41;;;;;;;7.13;2.17;;;;;;;;;;3382637;42;20094;-60
2022/10/14 00:13:12;;;;;;;6.75;2.38;;;;;;;;;;3384361;42;20121;-61
2022/10/14 00:15:44;;;;;;;6.80;2.53;;;;;;;;;;3384806;42;20724;-61
2022/10/14 00:18:15;;;;;;;6.32;2.53;;;;;;;;;;3371560;42;20102;-61
2022/10/14 00:20:56;;;;;;;8.55;2.80;;;;;;;;;;3382979;42;20503;-62
2022/10/14 00:23:27;;;;;;;6.40;2.50;;;;;;;;;;3374986;42;20555;-60
2022/10/14 00:25:58;;;;;;;6.43;2.78;;;;;;;;;;3375789;42;20573;-62
2022/10/14 00:28:30;;;;;;;7.97;3.05;;;;;;;;;;3384248;42;20101;-59
2022/10/14 00:31:01;;;;;;;7.95;2.55;;;;;;;;;;3384064;42;20089;-60
2022/10/14 00:33:32;;;;;;;8.80;2.70;;;;;;;;;;3391729;42;20091;-63
2022/10/14 00:36:04;;;;;;;7.50;2.60;;;;;;;;;;3382803;42;20560;-61
2022/10/14 00:38:36;;;;;;;9.75;3.10;;;;;;;;;;3384282;42;20083;-62
2022/10/14 00:41:07;;;;;;;7.90;2.63;;;;;;;;;;3376497;42;20110;-60
2022/10/14 00:43:57;;;;;;;7.13;2.55;;;;;;;;;;3371409;42;20150;-63
2022/10/14 00:46:38;;;;;;;7.95;2.83;;;;;;;;;;3387069;42;20098;-61
2022/10/14 00:49:12;;;;;;;8.30;3.17;;;;;;;;;;3380561;42;20098;-62
2022/10/14 00:51:46;;;;;;;9.13;3.38;;;;;;;;;;3376839;42;20079;-60
2022/10/14 00:54:19;;;;;;;7.20;2.85;;;;;;;;;;3376840;42;20152;-62
2022/10/14 00:56:50;;;;;;;6.97;2.60;;;;;;;;;;3370442;42;20160;-63
2022/10/14 00:59:22;;;;;;;7.30;2.70;;;;;;;;;;3381226;42;20113;-61
2022/10/14 01:01:53;;;;;;;7.70;2.50;;;;;;;;;;3387843;42;20103;-63
2022/10/14 01:04:25;;;;;;;7.30;2.50;;;;;;;;;;3384030;42;20095;-62
2022/10/14 01:07:05;;;;;;;8.70;2.60;;;;;;;;;;3374756;42;20668;-70
2022/10/14 01:10:05;;;;;;;8.70;2.60;;;;;;;;;;3381769;42;20087;-61
2022/10/14 01:12:45;;;;;;;9.27;2.60;;;;;;;;;;3375828;42;20154;-61
2022/10/14 01:15:40;;;;;;;8.33;2.60;;;;;;;;;;3384588;42;20162;-63
2022/10/14 01:18:52;;;;;;;9.85;2.85;;;;;;;;;;3382639;42;20540;-64
2022/10/14 01:21:33;;;;;;;7.60;2.72;;;;;;;;;;3384396;42;20121;-61
2022/10/14 01:24:41;;;;;;;8.20;2.40;;;;;;;;;;3374083;42;20095;-61
2022/10/14 01:27:21;;;;;;;6.38;2.65;;;;;;;;;;3376831;42;20097;-62
2022/10/14 01:30:00;;;;;;;6.80;2.40;;;;;;;;;;3381324;42;20095;-62
2022/10/14 01:32:34;;;;;;;8.63;2.20;;;;;;;;;;3373953;42;20094;-62
2022/10/14 01:35:22;;;;;;;6.50;2.50;;;;;;;;;;3373718;42;20079;-63
2022/10/14 01:38:07;;;;;;;6.03;2.30;;;;;;;;;;3374147;42;20095;-61
2022/10/14 01:40:49;;;;;;;8.27;2.50;;;;;;;;;;3382920;42;20110;-61
2022/10/14 01:43:20;;;;;;;7.30;2.20;;;;;;;;;;3373217;42;20131;-60
2022/10/14 01:45:51;;;;;;;6.40;2.40;;;;;;;;;;3383559;42;20082;-61
2022/10/14 01:48:25;;;;;;;6.65;3.03;;;;;;;;;;3371926;42;20516;-60
2022/10/14 01:50:57;;;;;;;6.95;2.40;;;;;;;;;;3383135;42;20086;-62
2022/10/14 01:53:42;;;;;;;6.20;2.70;;;;;;;;;;3373902;42;20094;-64
2022/10/14 01:56:14;;;;;;;6.37;2.40;;;;;;;;;;3373020;42;20110;-62
2022/10/14 01:58:45;;;;;;;7.32;2.50;;;;;;;;;;3377440;42;20095;-61
2022/10/14 02:01:16;;;;;;;7.47;2.70;;;;;;;;;;3382644;42;20561;-62
2022/10/14 02:03:47;;;;;;;6.82;2.40;;;;;;;;;;3381659;42;20087;-63
2022/10/14 02:06:24;;;;;;;7.90;2.70;;;;;;;;;;3383148;42;20083;-65
2022/10/14 02:09:14;;;;;;;6.93;2.33;;;;;;;;;;3373161;42;20576;-61
2022/10/14 02:12:07;;;;;;;9.05;2.72;;;;;;;;;;3383660;42;20137;-61
2022/10/14 02:15:08;;;;;;;7.40;2.67;;;;;;;;;;3388552;42;20601;-64
2022/10/14 02:17:54;;;;;;;7.07;2.65;;;;;;;;;;3383791;42;20086;-62
2022/10/14 02:21:02;;;;;;;6.57;2.40;;;;;;;;;;3371761;42;20090;-61
2022/10/14 02:23:38;;;;;;;6.87;2.50;;;;;;;;;;3378127;42;20083;-61
2022/10/14 02:26:09;;;;;;;9.30;2.85;;;;;;;;;;3374133;42;20748;-60
2022/10/14 02:28:40;;;;;;;6.85;3.13;;;;;;;;;;3372421;42;20549;-61
2022/10/14 02:31:13;;;;;;;7.97;3.25;;;;;;;;;;3381188;42;20091;-61
2022/10/14 02:34:01;;;;;;;8.10;3.00;;;;;;;;;;3376672;42;20151;-61
2022/10/14 02:36:32;;;;;;;8.30;2.90;;;;;;;;;;3372425;42;20560;-61
2022/10/14 02:39:03;;;;;;;7.35;2.83;;;;;;;;;;3372175;42;20082;-62
2022/10/14 02:41:35;;;;;;;6.78;3.00;;;;;;;;;;3375831;42;20091;-62
2022/10/14 02:44:06;;;;;;;8.65;3.30;;;;;;;;;;3375625;42;20094;-61
2022/10/14 02:46:38;;;;;;;7.18;2.92;;;;;;;;;;3373043;42;20102;-63
2022/10/14 02:49:09;;;;;;;8.97;3.20;;;;;;;;;;3375256;42;20113;-61
2022/10/14 02:51:40;;;;;;;12.13;3.63;;;;;;;;;;3370956;42;20102;-62
2022/10/14 02:54:12;;;;;;;9.77;3.22;;;;;;;;;;3382113;42;20089;-65
2022/10/14 02:56:43;;;;;;;7.75;3.13;;;;;;;;;;3370691;42;20092;-62
2022/10/14 02:59:15;;;;;;;8.82;3.50;;;;;;;;;;3381076;42;20110;-63
2022/10/14 03:01:46;;;;;;;7.77;3.40;;;;;;;;;;3380846;42;20087;-63
2022/10/14 03:04:17;;;;;;;7.30;3.00;;;;;;;;;;3382870;42;20090;-60
2022/10/14 03:06:48;;;;;;;8.35;3.53;;;;;;;;;;3383134;42;20106;-61
2022/10/14 03:09:19;;;;;;;7.65;3.70;;;;;;;;;;3382145;42;20204;-64
2022/10/14 03:11:51;;;;;;;9.48;3.63;;;;;;;;;;3380489;42;20559;-62
2022/10/14 03:14:22;;;;;;;9.07;3.40;;;;;;;;;;3381016;42;20110;-61
2022/10/14 03:16:53;;;;;;;9.80;3.55;;;;;;;;;;3389426;42;20171;-63
2022/10/14 03:19:25;;;;;;;8.60;3.70;;;;;;;;;;3382640;42;20098;-59
2022/10/14 03:21:56;;;;;;;7.25;2.90;;;;;;;;;;3382531;42;20143;-60
2022/10/14 03:24:27;;;;;;;11.35;3.42;;;;;;;;;;3382441;42;20098;-61
2022/10/14 03:26:58;;;;;;;10.00;2.93;;;;;;;;;;3382562;42;20133;-64
2022/10/14 03:29:29;;;;;;;9.95;2.83;;;;;;;;;;3379246;42;20106;-61
2022/10/14 03:32:01;;;;;;;9.80;3.33;;;;;;;;;;3378671;42;20091;-62
2022/10/14 03:34:32;;;;;;;7.30;3.00;;;;;;;;;;3382686;42;20094;-64
2022/10/14 03:37:03;;;;;;;7.20;2.92;;;;;;;;;;3382404;42;20089;-63
2022/10/14 03:39:34;;;;;;;8.07;3.10;;;;;;;;;;3381329;42;20296;-63
2022/10/14 03:42:06;;;;;;;8.80;2.92;;;;;;;;;;3381906;42;20588;-62
2022/10/14 03:44:37;;;;;;;6.68;3.00;;;;;;;;;;3372287;42;20095;-63
2022/10/14 03:47:08;;;;;;;6.50;2.90;;;;;;;;;;3381887;42;20098;-62
2022/10/14 03:49:39;;;;;;;7.70;3.03;;;;;;;;;;3383078;42;20091;-61
2022/10/14 03:52:10;;;;;;;7.17;2.73;;;;;;;;;;3383524;42;20610;-61
2022/10/14 03:54:42;;;;;;;6.78;2.58;;;;;;;;;;3383400;42;20103;-59
2022/10/14 03:57:13;;;;;;;7.22;2.92;;;;;;;;;;3380887;42;20155;-64
2022/10/14 03:59:44;;;;;;;7.45;2.88;;;;;;;;;;3383679;42;20254;-62
2022/10/14 04:02:17;;;;;;;9.30;3.13;;;;;;;;;;3383041;42;20185;-61
2022/10/14 04:04:48;;;;;;;7.43;2.67;;;;;;;;;;3383957;42;20105;-61
2022/10/14 04:07:19;;;;;;;7.13;2.80;;;;;;;;;;3384013;42;20535;-63
2022/10/14 04:09:50;;;;;;;7.53;2.88;;;;;;;;;;3383993;42;20095;-62
2022/10/14 04:12:22;;;;;;;7.00;2.58;;;;;;;;;;3383871;42;20126;-61
2022/10/14 04:14:55;;;;;;;9.07;2.80;;;;;;;;;;3372883;42;20213;-63
2022/10/14 04:17:27;;;;;;;6.17;2.53;;;;;;;;;;3377727;42;20577;-60
2022/10/14 04:19:58;;;;;;;10.35;3.00;;;;;;;;;;3377655;42;20091;-60
2022/10/14 04:22:30;;;;;;;5.97;2.40;;;;;;;;;;3381535;42;20106;-61
2022/10/14 04:25:01;;;;;;;6.57;2.63;;;;;;;;;;3381857;42;20720;-60
2022/10/14 04:27:32;;;;;;;7.30;2.80;;;;;;;;;;3383582;42;20101;-63
2022/10/14 04:30:04;;;;;;;6.80;2.80;;;;;;;;;;3374042;42;20201;-61
2022/10/14 04:32:36;;;;;;;6.88;2.60;;;;;;;;;;3378728;42;20509;-61
2022/10/14 04:35:08;;;;;;;7.53;2.80;;;;;;;;;;3380968;42;20091;-60
2022/10/14 04:37:39;;;;;;;7.70;2.50;;;;;;;;;;3370381;42;20083;-61
2022/10/14 04:40:10;;;;;;;6.55;2.72;;;;;;;;;;3373176;42;20166;-61
2022/10/14 04:42:42;;;;;;;6.40;2.30;;;;;;;;;;3379961;42;20105;-60
2022/10/14 04:45:13;;;;;;;9.20;2.78;;;;;;;;;;3376220;42;20101;-62
2022/10/14 04:47:44;;;;;;;8.32;3.33;;;;;;;;;;3374852;42;20099;-62
2022/10/14 04:50:16;;;;;;;7.72;2.67;;;;;;;;;;3377290;42;20091;-60
2022/10/14 04:52:48;;;;;;;7.05;2.42;;;;;;;;;;3376912;42;20221;-61
2022/10/14 04:55:19;;;;;;;7.10;2.90;;;;;;;;;;3377366;42;20102;-62
2022/10/14 04:57:50;;;;;;;6.72;2.70;;;;;;;;;;3378767;42;20160;-61
2022/10/14 05:00:21;;;;;;;7.78;2.67;;;;;;;;;;3377324;42;20099;-62
2022/10/14 05:02:52;;;;;;;10.20;2.83;;;;;;;;;;3377542;42;20090;-63
2022/10/14 05:05:24;;;;;;;7.43;3.00;;;;;;;;;;3375585;42;20091;-59
2022/10/14 05:07:55;;;;;;;11.47;3.97;;;;;;;;;;3379931;42;20183;-63
2022/10/14 05:10:26;;;;;;;9.13;3.03;;;;;;;;;;3362924;42;20138;-62
2022/10/14 05:12:57;;;;;;;7.43;2.75;;;;;;;;;;3386622;42;20098;-63
2022/10/14 05:15:29;;;;;;;8.30;3.05;;;;;;;;;;3376892;42;20099;-61
2022/10/14 05:18:00;;;;;;;6.57;2.42;;;;;;;;;;3376991;42;20083;-61
2022/10/14 05:20:32;;;;;;;7.07;2.63;;;;;;;;;;3368685;42;20138;-62
2022/10/14 05:23:04;;;;;;;7.68;2.67;;;;;;;;;;3382835;42;20129;-63
2022/10/14 05:25:35;;;;;;;9.70;2.70;;;;;;;;;;3380963;42;20095;-62
2022/10/14 05:28:06;;;;;;;6.93;2.72;;;;;;;;;;3381026;42;20170;-61
2022/10/14 05:30:38;;;;;;;8.85;2.70;;;;;;;;;;3382691;42;20103;-61
2022/10/14 05:33:09;;;;;;;6.90;2.57;;;;;;;;;;3383316;42;20105;-61
2022/10/14 05:35:41;;;;;;;8.52;2.70;;;;;;;;;;3382940;42;20109;-63
2022/10/14 05:38:13;;;;;;;8.55;2.63;;;;;;;;;;3372826;42;20083;-63
2022/10/14 05:40:51;;;;;;;8.48;2.75;;;;;;;;;;3383047;42;20099;-63
2022/10/14 05:43:25;;;;;;;6.40;2.70;;;;;;;;;;3383223;42;20154;-61
2022/10/14 05:45:57;;;;;;;6.57;2.57;;;;;;;;;;3379575;42;20098;-62
2022/10/14 05:48:28;;;;;;;8.75;2.58;;;;;;;;;;3383029;42;20098;-61
2022/10/14 05:51:01;;;;;;;7.50;3.03;;;;;;;;;;3382516;42;20604;-62
2022/10/14 05:53:33;;;;;;;6.43;2.35;;;;;;;;;;3382396;42;20091;-61
2022/10/14 05:56:07;;;;;;;6.55;2.60;;;;;;;;;;3382980;42;20129;-66
2022/10/14 05:58:39;;;;;;;7.60;2.90;;;;;;;;;;3376686;42;20170;-62
2022/10/14 06:01:10;;;;;;;6.68;2.60;;;;;;;;;;3389079;42;20107;-60
2022/10/14 06:03:42;;;;;;;7.50;2.42;;;;;;;;;;3373420;42;20160;-63
2022/10/14 06:06:13;;;;;;;8.40;3.00;;;;;;;;;;3380553;42;20150;-60
2022/10/14 06:08:44;;;;;;;7.00;2.75;;;;;;;;;;3383113;42;20635;-60
2022/10/14 06:11:16;;;;;;;7.73;2.50;;;;;;;;;;3383791;42;20087;-61
2022/10/14 06:13:47;;;;;;;6.97;2.70;;;;;;;;;;3382645;42;20115;-62
2022/10/14 06:16:18;;;;;;;9.80;3.03;;;;;;;;;;3380850;42;20095;-60
2022/10/14 06:18:50;;;;;;;6.53;2.50;;;;;;;;;;3381781;42;20149;-61
2022/10/14 06:21:21;;;;;;;7.85;2.90;;;;;;;;;;3373043;42;20107;-60
2022/10/14 06:23:52;;;;;;;7.80;2.67;;;;;;;;;;3382544;42;20099;-62
2022/10/14 06:26:23;;;;;;;6.03;2.60;;;;;;;;;;3380817;42;20095;-58
2022/10/14 06:28:55;;;;;;;8.63;3.42;;;;;;;;;;3381706;42;20087;-62
2022/10/14 06:31:26;;;;;;;7.90;2.92;;;;;;;;;;3382197;42;20176;-63
2022/10/14 06:33:57;;;;;;;7.30;2.72;;;;;;;;;;3382374;42;20172;-61
2022/10/14 06:36:28;;;;;;;7.90;2.90;;;;;;;;;;3383014;42;20102;-62
2022/10/14 06:38:59;;;;;;;7.15;2.97;;;;;;;;;;3382708;42;20101;-65
2022/10/14 06:41:31;;;;;;;8.60;2.95;;;;;;;;;;3382872;42;20131;-64
2022/10/14 06:44:03;;;;;;;8.93;2.63;;;;;;;;;;3383055;42;20142;-57
2022/10/14 06:46:34;;;;;;;7.20;2.83;;;;;;;;;;3380803;42;20094;-65
2022/10/14 06:49:05;;;;;;;7.97;3.00;;;;;;;;;;3381953;42;20164;-63
2022/10/14 06:51:38;;;;;;;7.18;2.67;;;;;;;;;;3381700;42;20112;-62
2022/10/14 06:54:09;;;;;;;7.93;2.80;;;;;;;;;;3378107;42;20129;-62
2022/10/14 06:56:41;;;;;;;6.65;2.42;;;;;;;;;;3377815;42;20094;-61
2022/10/14 06:59:12;;;;;;;6.65;2.72;;;;;;;;;;3382066;42;20101;-62
2022/10/14 07:01:43;;;;;;;8.40;2.50;;;;;;;;;;3381937;42;20654;-63
2022/10/14 07:04:14;;;;;;;8.10;2.80;;;;;;;;;;3379609;42;20095;-62
2022/10/14 07:06:45;;;;;;;6.70;2.78;;;;;;;;;;3381878;42;20094;-63
2022/10/14 07:09:17;;;;;;;6.47;2.88;;;;;;;;;;3382253;42;20083;-61
2022/10/14 07:11:48;;;;;;;9.98;2.80;;;;;;;;;;3382104;42;20516;-60
2022/10/14 07:14:19;;;;;;;6.83;2.80;;;;;;;;;;3379643;42;20094;-62
2022/10/14 07:16:52;;;;;;;7.07;2.95;;;;;;;;;;3382109;42;20095;-62
2022/10/14 07:19:23;;;;;;;7.38;3.13;;;;;;;;;;3385844;42;20107;-65
2022/10/14 07:21:54;;;;;;;7.65;3.10;;;;;;;;;;3389285;42;20095;-62
2022/10/14 07:24:26;;;;;;;7.22;2.80;;;;;;;;;;3381365;42;20094;-64
2022/10/14 07:26:57;;;;;;;8.00;2.73;;;;;;;;;;3384177;42;20091;-65
2022/10/14 07:29:28;;;;;;;9.75;2.88;;;;;;;;;;3384291;42;20154;-63
2022/10/14 07:32:00;;;;;;;8.27;2.50;;;;;;;;;;3380966;42;20095;-63
2022/10/14 07:34:33;;;;;;;6.05;2.50;;;;;;;;;;3381970;42;20545;-61
2022/10/14 07:37:04;;;;;;;6.97;2.60;;;;;;;;;;3384213;42;20106;-64
2022/10/14 07:39:36;;;;;;;7.10;2.60;;;;;;;;;;3383915;42;20091;-63
2022/10/14 07:42:07;;;;;;;8.40;2.75;;;;;;;;;;3383937;42;20178;-67
2022/10/14 07:44:38;;;;;;;6.22;2.58;;;;;;;;;;3384006;42;20097;-62
2022/10/14 07:47:09;;;;;;;6.45;2.50;;;;;;;;;;3383988;42;20098;-61
2022/10/14 07:49:41;;;;;;;8.13;2.97;;;;;;;;;;3377434;42;20158;-64
2022/10/14 07:52:14;;;;;;;6.00;2.30;;;;;;;;;;3383817;42;20564;-64
2022/10/14 07:54:45;;;;;;;6.00;2.30;;;;;;;;;;3384716;42;20086;-62
2022/10/14 07:57:16;;;;;;;6.35;2.80;;;;;;;;;;3382028;42;20094;-63
2022/10/14 07:59:48;;;;;;;6.53;2.30;;;;;;;;;;3384033;42;20549;-63
2022/10/14 08:02:19;;;;;;;6.57;2.40;;;;;;;;;;3383454;42;20099;-64
2022/10/14 08:04:54;;;;;;;6.10;2.40;;;;;;;;;;3384644;42;20561;-63
2022/10/14 08:07:25;;;;;;;5.47;2.00;;;;;;;;;;3371919;42;20102;-62
2022/10/14 08:09:57;;;;;;;6.10;2.30;;;;;;;;;;3378038;42;20565;-62
2022/10/14 08:12:28;;;;;;;5.95;2.25;;;;;;;;;;3374326;42;20129;-64
2022/10/14 08:14:59;;;;;;;6.90;2.25;;;;;;;;;;3382838;42;20202;-62
2022/10/14 08:17:30;;;;;;;6.90;2.20;;;;;;;;;;3379769;42;20099;-62
2022/10/14 08:20:02;;;;;;;6.18;2.20;;;;;;;;;;3378140;42;20580;-62
2022/10/14 08:22:33;;;;;;;7.68;2.45;;;;;;;;;;3382964;42;20544;-62
2022/10/14 08:25:05;;;;;;;7.10;2.35;;;;;;;;;;3390241;42;20105;-61
2022/10/14 08:27:36;;;;;;;6.70;2.35;;;;;;;;;;3383493;42;20557;-62
2022/10/14 08:30:09;;;;;;;7.40;2.30;;;;;;;;;;3383529;42;20174;-62
2022/10/14 08:32:40;;;;;;;6.57;2.60;;;;;;;;;;3381888;42;20823;-62
2022/10/14 08:35:11;;;;;;;7.80;2.60;;;;;;;;;;3383065;42;20090;-64
2022/10/14 08:37:42;;;;;;;7.28;2.55;;;;;;;;;;3382787;42;20138;-64
2022/10/14 08:40:15;;;;;;;6.60;2.47;;;;;;;;;;3390562;42;20189;-63
2022/10/14 08:42:54;;;;;;;7.80;2.60;;;;;;;;;;3373516;42;20884;-60
2022/10/14 08:45:32;;;;;;;8.32;3.03;;;;;;;;;;3381372;42;20142;-63
2022/10/14 08:48:10;;;;;;;7.10;2.92;;;;;;;;;;3379400;42;20083;-63
2022/10/14 08:50:45;;;;;;;6.38;2.58;;;;;;;;;;3371823;42;20106;-62
2022/10/14 08:53:35;;;;;;;6.43;2.50;;;;;;;;;;3371034;42;20092;-62
2022/10/14 08:56:06;;;;;;;5.83;2.20;;;;;;;;;;3380490;42;20087;-59
2022/10/14 08:58:42;;;;;;;8.23;2.20;;;;;;;;;;3368227;42;20601;-63
2022/10/14 09:01:25;;;;;;;6.90;2.80;;;;;;;;;;3372414;42;20145;-64
2022/10/14 09:04:02;;;;;;;7.32;2.50;;;;;;;;;;3373974;42;20114;-62
2022/10/14 09:06:34;;;;;;;6.30;2.70;;;;;;;;;;3373047;42;20093;-65
2022/10/14 09:09:17;;;;;;;7.20;2.17;;;;;;;;;;3370561;42;20585;-62
2022/10/14 09:11:55;;;;;;;6.80;2.47;;;;;;;;;;3377354;42;20138;-59
2022/10/14 09:14:30;;;;;;;5.93;2.20;;;;;;;;;;3373630;42;20509;-62
2022/10/14 09:17:07;;;;;;;7.22;2.38;;;;;;;;;;3372523;42;20565;-61
2022/10/14 09:19:45;;;;;;;7.22;2.78;;;;;;;;;;3367210;42;20133;-62
2022/10/14 09:22:17;;;;;;;6.40;2.23;;;;;;;;;;3373175;42;20470;-62
2022/10/14 09:24:48;;;;;;;5.97;2.30;;;;;;;;;;3379964;42;20095;-62
2022/10/14 09:27:20;;;;;;;5.95;2.38;;;;;;;;;;3383073;42;20099;-59
2022/10/14 09:30:03;;;;;;;10.52;2.25;;;;;;;;;;3381066;42;20098;-61
2022/10/14 09:33:02;;;;;;;7.55;2.40;;;;;;;;;;3381895;42;20142;-61
2022/10/14 09:35:36;;;;;;;5.60;2.10;;;;;;;;;;3380974;42;21058;-60
2022/10/14 09:38:07;;;;;;;6.47;2.28;;;;;;;;;;3382598;42;20626;-63
2022/10/14 09:40:41;;;;;;;7.45;2.40;;;;;;;;;;3371272;42;20095;-62
2022/10/14 09:43:20;;;;;;;6.32;2.30;;;;;;;;;;3383227;42;20197;-62
2022/10/14 09:46:02;;;;;;;6.15;2.00;;;;;;;;;;3372576;42;20099;-62
2022/10/14 09:48:47;;;;;;;7.93;2.63;;;;;;;;;;3378627;42;20102;-60
2022/10/14 09:51:19;;;;;;;5.97;2.10;;;;;;;;;;3381602;42;20106;-63
2022/10/14 09:53:52;;;;;;;6.38;2.53;;;;;;;;;;3366179;42;20090;-63
2022/10/14 09:56:36;;;;;;;6.18;2.40;;;;;;;;;;3383927;42;20098;-61
2022/10/14 09:59:46;;;;;;;8.68;2.40;;;;;;;;;;3380888;42;20087;-61
2022/10/14 10:02:24;;;;;;;8.80;2.40;;;;;;;;;;3382467;42;20553;-63
2022/10/14 10:04:56;;;;;;;6.85;2.20;;;;;;;;;;3372976;42;20090;-62
2022/10/14 10:07:32;;;;;;;7.90;2.63;;;;;;;;;;3386892;42;20168;-60
2022/10/14 10:10:17;;;;;;;7.45;2.55;;;;;;;;;;3379865;42;20126;-60
2022/10/14 10:12:48;;;;;;;6.95;2.40;;;;;;;;;;3381024;42;20099;-62
2022/10/14 10:15:20;;;;;;;8.20;2.40;;;;;;;;;;3378760;42;20524;-61
2022/10/14 10:17:51;;;;;;;7.70;2.28;;;;;;;;;;3382402;42;20745;-61
2022/10/14 10:20:32;;;;;;;7.95;2.78;;;;;;;;;;3369904;42;20118;-62
2022/10/14 10:23:35;;;;;;;10.23;3.30;;;;;;;;;;3381831;42;20165;-63
2022/10/14 10:26:15;;;;;;;9.85;2.53;;;;;;;;;;3363377;42;20206;-63
2022/10/14 10:28:47;;;;;;;8.03;2.13;;;;;;;;;;3382113;42;20138;-63
2022/10/14 10:31:20;;;;;;;6.25;1.80;;;;;;;;;;3382395;42;20122;-65
2022/10/14 10:34:06;;;;;;;8.60;2.40;;;;;;;;;;3378079;42;20202;-60
2022/10/14 10:36:46;;;;;;;7.57;2.20;;;;;;;;;;3376084;42;20135;-60
2022/10/14 10:39:21;;;;;;;7.05;2.25;;;;;;;;;;3380802;42;20090;-62
2022/10/14 10:42:04;;;;;;;6.60;1.97;;;;;;;;;;3376128;42;20199;-65
2022/10/14 10:44:57;;;;;;;7.05;1.90;;;;;;;;;;3372064;42;20196;-61
2022/10/14 10:47:33;;;;;;;11.10;3.03;;;;;;;;;;3376859;42;20087;-64
2022/10/14 10:50:26;;;;;;;6.80;1.77;;;;;;;;;;3382762;42;20168;-62
2022/10/14 10:53:04;;;;;;;5.57;1.80;;;;;;;;;;3380402;42;20091;-63
2022/10/14 10:55:38;;;;;;;7.90;1.70;;;;;;;;;;3382209;42;20086;-63
2022/10/14 10:58:18;;;;;;;5.55;1.85;;;;;;;;;;3381355;42;20582;-65
2022/10/14 11:01:20;;;;;;;5.68;2.30;;;;;;;;;;3374716;42;20110;-60
2022/10/14 11:04:31;;;;;;;6.25;1.92;;;;;;;;;;3379497;42;20095;-64
2022/10/14 11:13:17;;;;;;;5.25;2.17;;;;;;;;;;3368545;42;20095;-62
2022/10/14 11:16:03;;;;;;;8.85;2.05;;;;;;;;;;3377924;42;20118;-62
2022/10/14 11:19:03;;;;;;;5.93;1.90;;;;;;;;;;3375277;42;20095;-61
2022/10/14 11:21:44;;;;;;;5.47;1.90;;;;;;;;;;3382396;42;20565;-61
2022/10/14 11:24:44;;;;;;;7.03;2.00;;;;;;;;;;3381996;42;20149;-61
2022/10/14 11:27:21;;;;;;;6.55;2.00;;;;;;;;;;3388725;42;20627;-60
2022/10/14 11:30:00;;;;;;;6.35;1.90;;;;;;;;;;3371028;42;20090;-62
2022/10/14 11:32:47;;;;;;;5.32;1.73;;;;;;;;;;3380209;42;20101;-64
2022/10/14 11:35:42;;;;;;;7.13;1.83;;;;;;;;;;3382293;42;20098;-62
2022/10/14 11:38:27;;;;;;;4.93;1.60;;;;;;;;;;3366163;42;20099;-61
2022/10/14 11:41:07;;;;;;;8.95;2.03;;;;;;;;;;3381404;42;20177;-66
2022/10/14 11:44:04;;;;;;;5.95;1.90;;;;;;;;;;3383725;42;20095;-64
2022/10/14 11:46:36;;;;;;;9.88;2.00;;;;;;;;;;3383338;42;20087;-63
2022/10/14 11:49:54;;;;;;;5.65;1.80;;;;;;;;;;3372011;42;20189;-61
2022/10/14 11:52:31;;;;;;;5.60;1.80;;;;;;;;;;3386259;42;20169;-63
2022/10/14 11:55:13;;;;;;;5.35;1.98;;;;;;;;;;3373207;42;20099;-62
2022/10/14 11:57:52;;;;;;;6.35;1.63;;;;;;;;;;3371716;42;20099;-63
2022/10/14 12:00:42;;;;;;;8.98;2.03;;;;;;;;;;3372662;42;20492;-61
2022/10/14 12:03:22;;;;;;;7.80;2.17;;;;;;;;;;3371135;42;20138;-63
2022/10/14 12:06:01;;;;;;;4.80;1.73;;;;;;;;;;3379737;42;20099;-64
2022/10/14 12:08:51;;;;;;;6.38;1.75;;;;;;;;;;3371884;42;20090;-63
2022/10/14 12:11:50;;;;;;;6.25;2.13;;;;;;;;;;3375141;42;20521;-64
2022/10/14 12:14:34;;;;;;;8.70;2.15;;;;;;;;;;3383137;42;20613;-64
2022/10/14 12:17:27;;;;;;;9.63;2.28;;;;;;;;;;3373157;42;20102;-67
2022/10/14 12:20:02;;;;;;;7.03;1.80;;;;;;;;;;3386925;42;20096;-67
2022/10/14 12:22:33;;;;;;;7.90;2.00;;;;;;;;;;3373260;42;20682;-64
2022/10/14 12:25:06;;;;;;;5.28;1.92;;;;;;;;;;3383106;42;20098;-64
2022/10/14 12:27:37;;;;;;;9.02;1.75;;;;;;;;;;3368441;42;20172;-66
2022/10/14 12:30:31;;;;;;;6.57;1.83;;;;;;;;;;3372916;42;20575;-63
2022/10/14 12:33:07;;;;;;;5.33;1.70;;;;;;;;;;3381947;42;20162;-65
2022/10/14 12:35:49;;;;;;;4.90;1.48;;;;;;;;;;3371131;42;20104;-63
2022/10/14 12:38:21;;;;;;;10.02;2.22;;;;;;;;;;3382940;42;20102;-65
2022/10/14 12:40:52;;;;;;;12.52;2.05;;;;;;;;;;3375074;42;20276;-61
2022/10/14 12:43:25;;;;;;;9.18;2.00;;;;;;;;;;3376099;42;20109;-62
2022/10/14 12:46:09;;;;;;;6.57;1.90;;;;;;;;;;3373649;42;20095;-59
2022/10/14 12:48:45;;;;;;;6.55;1.90;;;;;;;;;;3383423;42;20101;-60
2022/10/14 12:51:19;;;;;;;11.70;1.98;;;;;;;;;;3376298;42;20087;-63
2022/10/14 12:54:11;;;;;;;8.60;1.73;;;;;;;;;;3381308;42;20122;-64
2022/10/14 12:56:44;;;;;;;5.03;1.75;;;;;;;;;;3382503;42;20688;-63
2022/10/14 12:59:36;;;;;;;5.07;1.60;;;;;;;;;;3374234;42;20102;-59
2022/10/14 13:02:31;;;;;;;6.10;1.65;;;;;;;;;;3372294;42;20118;-60
2022/10/14 13:05:07;;;;;;;6.28;1.80;;;;;;;;;;3380371;42;20083;-61
2022/10/14 13:07:44;;;;;;;5.78;1.73;;;;;;;;;;3372642;42;20097;-66
2022/10/14 13:10:37;;;;;;;6.45;2.00;;;;;;;;;;3372935;42;20103;-62
2022/10/14 13:13:51;;;;;;;7.70;1.90;;;;;;;;;;3381193;42;20102;-62
2022/10/14 13:16:22;;;;;;;6.65;1.70;;;;;;;;;;3378013;42;20107;-64
2022/10/14 13:19:00;;;;;;;7.68;1.80;;;;;;;;;;3381091;42;20086;-61
2022/10/14 13:21:35;;;;;;;6.15;2.40;;;;;;;;;;3381832;42;20095;-64
2022/10/14 13:24:28;;;;;;;7.88;2.30;;;;;;;;;;3381641;42;20087;-61
2022/10/14 13:27:17;;;;;;;9.93;2.20;;;;;;;;;;3374685;42;20576;-61
2022/10/14 13:30:15;;;;;;;6.93;2.28;;;;;;;;;;3373338;42;20090;-64
2022/10/14 13:32:51;;;;;;;7.43;1.90;;;;;;;;;;3372719;42;20087;-61
2022/10/14 13:35:46;;;;;;;10.65;2.40;;;;;;;;;;3365990;42;20598;-61
2022/10/14 13:38:18;;;;;;;6.85;1.77;;;;;;;;;;3369074;42;20110;-61
2022/10/14 13:40:54;;;;;;;7.53;2.23;;;;;;;;;;3373431;42;20095;-61
2022/10/14 13:43:28;;;;;;;8.52;2.20;;;;;;;;;;3380836;42;20188;-60
2022/10/14 13:46:13;;;;;;;6.50;1.80;;;;;;;;;;3379239;42;20095;-62
2022/10/14 13:48:49;;;;;;;6.65;2.10;;;;;;;;;;3363374;42;20228;-62
2022/10/14 13:51:39;;;;;;;6.45;2.00;;;;;;;;;;3372480;42;20102;-59
2022/10/14 13:54:14;;;;;;;8.27;2.10;;;;;;;;;;3387414;42;20151;-60
2022/10/14 13:57:08;;;;;;;6.32;1.98;;;;;;;;;;3375600;42;20553;-59
2022/10/14 13:59:41;;;;;;;5.95;2.03;;;;;;;;;;3388194;42;20098;-60
2022/10/14 14:02:19;;;;;;;6.28;2.00;;;;;;;;;;3382363;42;20110;-56
2022/10/14 14:04:52;;;;;;;8.50;2.22;;;;;;;;;;3371493;42;20126;-58
2022/10/14 14:07:26;;;;;;;8.77;1.80;;;;;;;;;;3380498;42;20134;-57
2022/10/14 14:10:02;;;;;;;6.07;1.85;;;;;;;;;;3370439;42;20921;-58
2022/10/14 14:12:33;;;;;;;8.00;1.90;;;;;;;;;;3372499;42;20505;-55
2022/10/14 14:15:05;;;;;;;6.63;2.05;;;;;;;;;;3382037;42;20146;-60
2022/10/14 14:17:36;;;;;;;5.78;2.13;;;;;;;;;;3382745;42;20154;-60
2022/10/14 14:20:11;;;;;;;5.30;1.70;;;;;;;;;;3382466;42;20098;-59
2022/10/14 14:22:42;;;;;;;6.40;1.60;;;;;;;;;;3382446;42;20110;-57
2022/10/14 14:25:14;;;;;;;7.40;1.88;;;;;;;;;;3380658;42;20636;-57
2022/10/14 14:27:47;;;;;;;5.80;1.77;;;;;;;;;;3382158;42;20162;-57
2022/10/14 14:30:29;;;;;;;4.93;1.73;;;;;;;;;;3374595;42;20106;-56
2022/10/14 14:33:02;;;;;;;7.27;2.03;;;;;;;;;;3377677;42;20165;-61
2022/10/14 14:35:33;;;;;;;5.50;1.77;;;;;;;;;;3377970;42;20497;-57
2022/10/14 14:38:04;;;;;;;8.93;2.47;;;;;;;;;;3386543;42;20091;-60
2022/10/14 14:40:35;;;;;;;5.70;2.25;;;;;;;;;;3372592;42;20141;-58
2022/10/14 14:43:07;;;;;;;7.20;2.30;;;;;;;;;;3382504;42;20090;-59
2022/10/14 14:45:43;;;;;;;6.30;2.00;;;;;;;;;;3373547;42;20095;-61
2022/10/14 14:48:14;;;;;;;7.05;2.35;;;;;;;;;;3372828;42;20572;-58
2022/10/14 14:50:47;;;;;;;6.32;2.13;;;;;;;;;;3385345;42;20893;-59
2022/10/14 14:53:19;;;;;;;5.47;2.03;;;;;;;;;;3370187;42;20103;-59
2022/10/14 14:56:15;;;;;;;6.05;2.03;;;;;;;;;;3374979;42;20087;-62
2022/10/14 14:58:49;;;;;;;5.40;1.90;;;;;;;;;;3370339;42;20095;-60
2022/10/14 15:01:23;;;;;;;5.95;2.20;;;;;;;;;;3382006;42;20185;-59
2022/10/14 15:03:56;;;;;;;6.18;2.50;;;;;;;;;;3382507;42;20604;-55
2022/10/14 15:06:27;;;;;;;16.38;6.57;;;;;;;;;;3383362;42;20091;-61
2022/10/14 15:09:10;;;;;;;6.00;2.20;;;;;;;;;;3369192;42;20096;-60
2022/10/14 15:11:50;;;;;;;8.63;2.30;;;;;;;;;;3380177;42;20102;-58
2022/10/14 15:14:43;;;;;;;5.80;2.22;;;;;;;;;;3376803;42;20646;-59
2022/10/14 15:17:44;;;;;;;6.35;2.45;;;;;;;;;;3370641;42;20091;-60
2022/10/14 15:20:19;;;;;;;5.90;1.80;;;;;;;;;;3376994;42;20109;-57
2022/10/14 15:22:51;;;;;;;7.15;1.80;;;;;;;;;;3382393;42;20098;-61
2022/10/14 15:25:24;;;;;;;6.30;1.70;;;;;;;;;;3381974;42;20182;-58
2022/10/14 15:27:59;;;;;;;6.15;1.90;;;;;;;;;;3381904;42;20091;-63
2022/10/14 15:30:33;;;;;;;7.05;1.98;;;;;;;;;;3382158;42;20164;-63
2022/10/14 15:33:21;;;;;;;5.05;1.67;;;;;;;;;;3382913;42;20098;-65
2022/10/14 15:36:00;;;;;;;6.72;1.90;;;;;;;;;;3379273;42;20219;-61
2022/10/14 15:38:31;;;;;;;10.53;1.80;;;;;;;;;;3375157;42;20610;-62
2022/10/14 15:41:03;;;;;;;5.22;1.58;;;;;;;;;;3381639;42;20667;-62
2022/10/14 15:43:38;;;;;;;5.35;1.50;;;;;;;;;;3371559;42;20086;-62